Time;durP1;ratioP1;P1;durP2;ratioP2;P2;SDS_P1;SDS_P2;PMS_P1;PMS_P2;Temp;Humidity;BMP_temperature;BMP_pressure;BME280_temperature;BME280_humidity;BME280_pressure;Samples;Min_cycle;Max_cycle;Signal;HPM_P1;HPM_P2
2022/11/26 00:00:00;;;;;;;159.68;105.03;;;;;;;9.79;83.58;101735.53;4942801;28;20051;-78
2022/11/26 00:02:29;;;;;;;169.68;101.65;;;;;;;10.17;82.99;101784.28;4941009;29;20105;-79
2022/11/26 00:04:58;;;;;;;171.18;104.20;;;;;;;10.06;83.13;101788.50;4957065;28;20083;-77
2022/11/26 00:07:29;;;;;;;174.18;108.72;;;;;;;9.30;83.42;101669.06;4940073;28;20430;-82
2022/11/26 00:09:58;;;;;;;171.80;106.35;;;;;;;10.06;83.76;101783.22;4941817;28;20075;-82
2022/11/26 00:12:31;;;;;;;177.98;106.50;;;;;;;10.00;83.39;101767.72;4923972;28;20543;-84
2022/11/26 00:15:18;;;;;;;165.90;106.73;;;;;;;9.84;83.36;101754.63;4922633;28;20307;-81
2022/11/26 00:18:00;;;;;;;169.00;107.47;;;;;;;9.90;83.20;101745.41;4920410;28;20659;-80
2022/11/26 00:20:29;;;;;;;167.90;105.80;;;;;;;10.05;83.68;101786.81;4922226;28;20157;-81
2022/11/26 00:23:00;;;;;;;167.70;108.30;;;;;;;10.02;83.29;101781.75;4923449;28;20055;-83
2022/11/26 00:25:36;;;;;;;176.27;109.95;;;;;;;9.26;83.81;101671.06;4922439;28;20099;-82
2022/11/26 00:28:21;;;;;;;180.77;112.40;;;;;;;9.70;83.54;101749.41;4921291;28;20111;-81
2022/11/26 00:30:51;;;;;;;173.45;110.95;;;;;;;9.79;83.84;101766.50;4918448;28;20051;-79
2022/11/26 00:33:21;;;;;;;182.98;111.50;;;;;;;9.81;83.05;101756.66;4938433;28;20047;-82
2022/11/26 00:35:51;;;;;;;175.52;108.47;;;;;;;9.92;84.09;101796.56;4938444;28;20427;-82
2022/11/26 00:38:23;;;;;;;176.27;108.43;;;;;;;9.96;84.11;101798.06;4939736;28;20617;-82
2022/11/26 00:40:53;;;;;;;172.18;111.22;;;;;;;9.96;84.30;101792.75;4938887;28;20907;-81
2022/11/26 00:43:20;;;;;;;178.85;114.30;;;;;;;9.97;84.00;101793.59;4939162;28;20486;-82
2022/11/26 00:45:49;;;;;;;181.20;112.28;;;;;;;9.08;84.43;101651.06;4939902;28;20510;-80
2022/11/26 00:48:16;;;;;;;180.80;113.10;;;;;;;10.02;84.12;101792.34;4939989;28;20114;-81
2022/11/26 00:50:49;;;;;;;177.05;112.57;;;;;;;9.91;84.03;101767.50;4940731;28;20093;-82
2022/11/26 00:53:26;;;;;;;181.73;114.07;;;;;;;9.67;83.86;101732.88;4937516;28;20574;-82
2022/11/26 00:55:56;;;;;;;182.02;109.80;;;;;;;10.02;83.60;101780.88;4939004;28;20148;-82
2022/11/26 00:58:28;;;;;;;180.43;111.25;;;;;;;9.87;83.36;101772.16;4916416;28;20468;-83
2022/11/26 01:00:58;;;;;;;180.70;111.00;;;;;;;9.59;82.88;101715.66;4900252;29;20094;-82
2022/11/26 01:03:28;;;;;;;181.70;112.10;;;;;;;10.04;84.13;101793.06;4900362;29;20548;-82
2022/11/26 01:05:57;;;;;;;181.15;110.55;;;;;;;9.60;83.59;101727.97;4898871;29;20721;-82
2022/11/26 01:08:33;;;;;;;180.45;113.95;;;;;;;10.03;83.43;101786.06;4916162;28;20169;-84
2022/11/26 01:11:03;;;;;;;180.57;112.35;;;;;;;9.94;83.92;101777.91;4916299;28;20128;-82
2022/11/26 01:13:32;;;;;;;187.13;118.95;;;;;;;9.99;83.11;101781.09;4901316;29;20051;-82
2022/11/26 01:16:15;;;;;;;173.70;112.60;;;;;;;10.05;82.94;101786.81;4915408;28;20056;-81
2022/11/26 01:18:42;;;;;;;191.75;114.85;;;;;;;9.71;83.22;101747.59;4916576;28;20048;-81
2022/11/26 01:21:12;;;;;;;180.93;114.05;;;;;;;9.81;83.77;101784.03;4913340;28;20510;-81
2022/11/26 01:23:39;;;;;;;172.43;110.15;;;;;;;9.54;83.12;101725.75;4916389;28;20052;-84
2022/11/26 01:26:15;;;;;;;182.13;112.97;;;;;;;9.88;82.69;101773.88;4917234;28;20055;-83
2022/11/26 01:28:48;;;;;;;176.88;111.93;;;;;;;9.93;83.18;101787.66;4920295;28;20173;-82
2022/11/26 01:31:20;;;;;;;174.45;114.93;;;;;;;9.89;83.41;101796.75;4919924;28;20149;-83
2022/11/26 01:33:47;;;;;;;175.77;111.50;;;;;;;9.79;83.24;101779.78;4939236;28;20054;-81
2022/11/26 01:36:31;;;;;;;185.95;113.18;;;;;;;9.75;84.00;101784.41;4937761;28;20061;-82
2022/11/26 01:39:12;;;;;;;173.98;112.28;;;;;;;9.75;84.21;101804.78;4937412;28;20526;-80
2022/11/26 01:41:51;;;;;;;178.98;111.70;;;;;;;9.90;83.58;101805.56;4935674;28;20054;-81
2022/11/26 01:44:30;;;;;;;177.68;113.95;;;;;;;8.45;83.49;101573.97;4937637;28;20141;-82
2022/11/26 01:47:20;;;;;;;179.95;114.30;;;;;;;9.76;83.05;101798.56;4936078;28;20561;-81
2022/11/26 01:50:25;;;;;;;193.70;115.63;;;;;;;9.78;83.09;101812.53;4935512;28;20139;-80
2022/11/26 01:52:55;;;;;;;184.75;116.30;;;;;;;9.71;82.91;101803.28;4937806;28;20132;-81
2022/11/26 01:55:22;;;;;;;185.88;114.82;;;;;;;9.79;83.74;101814.25;4936082;28;20327;-82
2022/11/26 01:57:50;;;;;;;196.60;118.07;;;;;;;9.80;83.61;101814.13;4920982;28;20388;-81
2022/11/26 02:00:20;;;;;;;182.63;117.38;;;;;;;9.20;84.08;101727.97;4897457;29;20055;-81
2022/11/26 02:02:46;;;;;;;196.38;117.65;;;;;;;9.73;84.61;101819.94;4906774;28;20063;-81
2022/11/26 02:05:30;;;;;;;190.77;116.30;;;;;;;9.62;84.05;101780.91;4917268;28;20067;-81
2022/11/26 02:07:58;;;;;;;196.00;119.03;;;;;;;9.53;83.71;101778.84;4918094;28;20526;-82
2022/11/26 02:10:24;;;;;;;186.15;116.22;;;;;;;9.63;84.20;101806.44;4915790;28;20165;-81
2022/11/26 02:12:51;;;;;;;190.23;116.75;;;;;;;9.73;83.89;101827.91;4916978;28;20134;-82
2022/11/26 02:15:22;;;;;;;195.73;119.15;;;;;;;9.59;83.65;101794.38;4919437;28;20059;-80
2022/11/26 02:17:56;;;;;;;198.43;120.53;;;;;;;9.77;84.27;101824.09;4917283;28;20480;-83
2022/11/26 02:20:47;;;;;;;191.50;118.70;;;;;;;9.78;83.28;101825.78;4916686;28;20043;-82
2022/11/26 02:23:27;;;;;;;194.70;119.43;;;;;;;9.16;84.00;101722.97;4916196;28;20161;-82
2022/11/26 02:26:15;;;;;;;199.15;120.15;;;;;;;9.71;84.70;101816.53;4915580;28;20066;-82
2022/11/26 02:29:12;;;;;;;198.20;124.72;;;;;;;9.26;83.91;101744.41;4914591;28;20043;-81
2022/11/26 02:31:44;;;;;;;206.48;119.22;;;;;;;9.49;84.35;101779.97;4917815;28;20352;-81
2022/11/26 02:34:43;;;;;;;197.45;121.15;;;;;;;9.66;84.46;101824.81;4936287;28;20553;-81
2022/11/26 02:37:34;;;;;;;210.30;123.75;;;;;;;9.07;83.98;101724.38;4936593;28;20087;-81
2022/11/26 02:40:01;;;;;;;197.77;117.82;;;;;;;9.58;84.09;101803.25;4936543;28;20546;-83
2022/11/26 02:42:35;;;;;;;201.63;122.45;;;;;;;9.62;84.11;101802.94;4935950;28;20062;-80
2022/11/26 02:45:10;;;;;;;188.48;121.43;;;;;;;9.25;84.66;101747.97;4935558;28;20062;-81
2022/11/26 02:47:39;;;;;;;199.48;120.50;;;;;;;9.52;84.40;101799.22;4938247;28;20039;-82
2022/11/26 02:50:11;;;;;;;202.27;122.43;;;;;;;9.73;84.24;101833.22;4934175;28;20055;-81
2022/11/26 02:52:42;;;;;;;200.25;121.63;;;;;;;9.56;84.15;101800.72;4934400;28;20113;-80
2022/11/26 02:55:13;;;;;;;194.85;123.57;;;;;;;9.62;83.87;101816.22;4937355;28;20435;-79
2022/11/26 02:57:47;;;;;;;201.02;122.75;;;;;;;9.89;83.84;101830.41;4922105;28;20061;-82
2022/11/26 03:00:15;;;;;;;198.35;120.80;;;;;;;9.73;83.53;101822.59;4918999;28;20313;-82
2022/11/26 03:03:22;;;;;;;190.40;121.53;;;;;;;9.75;83.12;101807.44;4916976;28;20738;-80
2022/11/26 03:05:58;;;;;;;198.68;120.97;;;;;;;9.78;83.71;101831.09;4917455;28;20543;-78
2022/11/26 03:08:30;;;;;;;197.35;121.40;;;;;;;9.66;83.57;101805.38;4917038;28;20052;-78
2022/11/26 03:10:57;;;;;;;198.27;119.13;;;;;;;9.91;83.57;101832.00;4915793;28;20051;-81
2022/11/26 03:13:24;;;;;;;194.10;120.43;;;;;;;8.78;83.48;101644.19;4917260;28;20442;-80
2022/11/26 03:15:51;;;;;;;195.32;119.28;;;;;;;9.04;82.78;101671.63;4914414;28;20055;-80
2022/11/26 03:18:18;;;;;;;190.70;120.68;;;;;;;9.75;83.06;101789.72;4920087;28;20444;-82
2022/11/26 03:20:45;;;;;;;186.82;116.43;;;;;;;9.78;82.46;101794.84;4916513;28;20680;-81
2022/11/26 03:23:12;;;;;;;188.48;117.22;;;;;;;10.05;82.66;101839.03;4915782;28;20062;-79
2022/11/26 03:25:39;;;;;;;200.50;120.03;;;;;;;9.77;82.93;101806.38;4914528;28;20344;-80
2022/11/26 03:28:06;;;;;;;191.82;118.07;;;;;;;9.94;82.27;101837.09;4912159;28;20407;-81
2022/11/26 03:30:33;;;;;;;202.52;121.43;;;;;;;9.81;82.13;101815.00;4920144;28;20055;-80
2022/11/26 03:32:59;;;;;;;191.15;115.38;;;;;;;9.99;82.81;101832.31;4935165;28;20582;-80
2022/11/26 03:35:26;;;;;;;191.40;118.78;;;;;;;9.92;82.73;101838.16;4938466;28;20696;-79
2022/11/26 03:37:53;;;;;;;200.77;120.25;;;;;;;9.77;81.90;101789.63;4937785;28;20058;-80
2022/11/26 03:40:20;;;;;;;199.52;118.40;;;;;;;9.99;82.43;101850.91;4935960;28;20811;-81
2022/11/26 03:42:47;;;;;;;189.48;118.95;;;;;;;10.06;82.64;101857.50;4936483;28;20054;-81
2022/11/26 03:45:14;;;;;;;194.27;119.57;;;;;;;10.05;82.49;101855.81;4936370;28;20137;-80
2022/11/26 03:47:41;;;;;;;189.55;115.60;;;;;;;9.85;82.36;101829.75;4935308;28;20130;-80
2022/11/26 03:50:11;;;;;;;192.43;116.35;;;;;;;9.69;82.64;101794.59;4940579;28;20351;-80
2022/11/26 03:52:37;;;;;;;198.13;119.40;;;;;;;9.76;82.27;101812.66;4937331;28;20202;-81
2022/11/26 03:55:05;;;;;;;190.43;118.30;;;;;;;9.64;82.17;101797.56;4938777;28;20494;-80
2022/11/26 03:57:32;;;;;;;195.70;117.68;;;;;;;9.95;82.17;101849.44;4926552;28;20507;-82
2022/11/26 04:00:01;;;;;;;195.05;114.30;;;;;;;9.88;82.49;101866.69;4917731;28;20550;-79
2022/11/26 04:02:31;;;;;;;189.60;115.10;;;;;;;9.43;82.90;101791.84;4919374;28;20512;-80
2022/11/26 04:04:58;;;;;;;187.45;117.35;;;;;;;9.93;82.30;101850.47;4921166;28;20085;-82
2022/11/26 04:07:28;;;;;;;195.60;120.05;;;;;;;9.75;81.62;101820.69;4917646;28;20485;-81
2022/11/26 04:09:57;;;;;;;191.45;116.65;;;;;;;9.94;82.35;101850.34;4917204;29;20158;-81
2022/11/26 04:12:24;;;;;;;184.63;113.72;;;;;;;9.99;82.03;101853.56;4920003;28;20138;-79
2022/11/26 04:14:51;;;;;;;198.75;114.97;;;;;;;10.09;80.87;101866.22;4921119;28;20538;-81
2022/11/26 04:17:17;;;;;;;193.95;118.13;;;;;;;9.96;81.14;101860.88;4921276;28;20598;-79
2022/11/26 04:19:44;;;;;;;186.80;113.40;;;;;;;9.88;81.42;101858.75;4918704;28;20054;-80
2022/11/26 04:22:12;;;;;;;185.48;111.65;;;;;;;9.80;81.69;101867.16;4921141;28;20543;-81
2022/11/26 04:24:39;;;;;;;204.45;115.72;;;;;;;9.68;81.80;101845.91;4920788;28;20087;-81
2022/11/26 04:27:09;;;;;;;178.40;113.55;;;;;;;9.61;82.76;101851.63;4920499;28;20066;-81
2022/11/26 04:29:36;;;;;;;194.98;114.05;;;;;;;9.71;81.96;101864.28;4917029;29;20211;-81
2022/11/26 04:32:04;;;;;;;176.65;109.18;;;;;;;9.63;81.88;101854.16;4927010;28;20632;-82
2022/11/26 04:34:31;;;;;;;183.63;109.43;;;;;;;9.80;81.60;101874.28;4938366;28;20546;-79
2022/11/26 04:36:58;;;;;;;177.85;110.18;;;;;;;9.46;80.84;101817.31;4939296;28;20063;-79
2022/11/26 04:39:25;;;;;;;181.15;108.95;;;;;;;9.73;81.24;101865.03;4937444;28;20138;-78
2022/11/26 04:41:52;;;;;;;181.07;109.63;;;;;;;9.53;80.88;101845.97;4941181;28;20323;-83
2022/11/26 04:44:21;;;;;;;188.40;106.97;;;;;;;9.68;81.54;101885.69;4940637;28;20066;-79
2022/11/26 04:46:48;;;;;;;177.32;106.90;;;;;;;9.59;81.01;101872.09;4939354;28;20533;-80
2022/11/26 04:49:15;;;;;;;166.27;105.57;;;;;;;9.40;81.31;101859.16;4936080;28;20054;-79
2022/11/26 04:51:41;;;;;;;171.20;104.25;;;;;;;9.76;80.48;101894.03;4934710;28;20061;-80
2022/11/26 04:54:08;;;;;;;171.32;103.35;;;;;;;9.53;81.14;101875.13;4939404;28;20261;-79
2022/11/26 04:56:38;;;;;;;168.32;103.63;;;;;;;9.49;80.98;101872.75;4932594;28;20054;-78
2022/11/26 04:59:08;;;;;;;166.35;100.93;;;;;;;9.67;80.31;101897.25;4914147;28;20332;-79
2022/11/26 05:01:36;;;;;;;166.98;101.28;;;;;;;9.56;80.47;101889.97;4914334;28;20083;-80
2022/11/26 05:04:03;;;;;;;175.02;102.53;;;;;;;9.67;80.60;101897.25;4897528;29;20579;-81
2022/11/26 05:06:30;;;;;;;169.68;99.63;;;;;;;9.67;80.31;101915.81;4896245;29;20831;-81
2022/11/26 05:08:58;;;;;;;165.73;102.20;;;;;;;9.49;80.35;101894.84;4916242;28;20066;-78
2022/11/26 05:11:25;;;;;;;159.18;99.35;;;;;;;9.63;80.85;101913.34;4902341;28;20475;-81
2022/11/26 05:13:52;;;;;;;156.35;95.68;;;;;;;9.50;80.35;101885.94;4916920;28;20054;-82
2022/11/26 05:16:18;;;;;;;167.02;99.13;;;;;;;9.38;80.85;101866.34;4917897;29;20055;-79
2022/11/26 05:18:45;;;;;;;158.30;96.43;;;;;;;9.61;79.75;101894.06;4920880;28;20495;-80
2022/11/26 05:21:12;;;;;;;168.88;99.45;;;;;;;9.74;80.39;101930.41;4922368;28;20218;-80
2022/11/26 05:23:39;;;;;;;168.02;99.75;;;;;;;9.57;80.48;101913.75;4919975;29;20891;-78
2022/11/26 05:26:06;;;;;;;163.82;99.95;;;;;;;9.81;79.63;101935.19;4919323;28;20507;-79
2022/11/26 05:28:41;;;;;;;162.77;100.10;;;;;;;9.75;79.25;101926.78;4918109;29;20402;-80
2022/11/26 05:31:07;;;;;;;158.45;96.22;;;;;;;9.76;79.28;101939.94;4920563;28;20934;-80
2022/11/26 05:33:34;;;;;;;159.23;97.63;;;;;;;9.55;79.39;101888.28;4922990;28;20730;-78
2022/11/26 05:36:04;;;;;;;164.93;100.60;;;;;;;9.78;79.20;101953.09;4920686;28;20251;-80
2022/11/26 05:38:31;;;;;;;155.95;97.30;;;;;;;9.80;79.47;101956.50;4922143;28;20523;-80
2022/11/26 05:40:58;;;;;;;169.90;100.43;;;;;;;9.58;78.88;101904.00;4920045;28;20066;-80
2022/11/26 05:43:25;;;;;;;164.75;99.45;;;;;;;9.74;79.58;101957.75;4918454;28;20051;-81
2022/11/26 05:45:55;;;;;;;162.50;96.78;;;;;;;9.64;79.16;101919.53;4918917;28;20062;-81
2022/11/26 05:48:22;;;;;;;164.88;95.75;;;;;;;9.70;80.07;101971.31;4919563;28;20055;-80
2022/11/26 05:50:57;;;;;;;157.10;95.15;;;;;;;9.76;80.15;101973.59;4930665;28;20067;-80
2022/11/26 05:53:30;;;;;;;164.52;96.53;;;;;;;9.76;79.70;101976.22;4939994;28;20054;-78
2022/11/26 05:55:56;;;;;;;162.05;97.00;;;;;;;9.74;79.94;101978.13;4937255;28;20063;-82
2022/11/26 05:58:23;;;;;;;157.68;95.43;;;;;;;9.59;79.79;101959.59;4934485;28;20079;-78
2022/11/26 06:00:50;;;;;;;150.82;94.28;;;;;;;9.73;80.54;101989.66;4917444;29;20055;-77
2022/11/26 06:03:17;;;;;;;155.60;98.05;;;;;;;9.47;79.82;101957.72;4937805;28;20059;-81
2022/11/26 06:05:55;;;;;;;162.68;95.97;;;;;;;9.29;81.35;101940.28;4931585;28;20043;-80
2022/11/26 06:08:22;;;;;;;168.43;97.10;;;;;;;9.65;81.36;101991.97;4936375;28;20043;-79
2022/11/26 06:10:55;;;;;;;162.80;97.35;;;;;;;9.69;80.91;101996.13;4937734;28;20065;-81
2022/11/26 06:13:25;;;;;;;163.88;95.85;;;;;;;9.35;81.92;101963.78;4937841;28;20083;-81
2022/11/26 06:15:52;;;;;;;151.27;87.90;;;;;;;9.41;80.53;101960.72;4937849;28;20062;-82
2022/11/26 06:18:19;;;;;;;155.93;95.30;;;;;;;9.46;80.84;101989.59;4920875;28;20055;-80
2022/11/26 06:20:46;;;;;;;160.82;93.75;;;;;;;9.54;81.29;102008.53;4918899;28;20070;-84
2022/11/26 06:23:12;;;;;;;163.63;95.40;;;;;;;9.49;82.79;102021.22;4919743;28;20054;-83
2022/11/26 06:25:40;;;;;;;160.90;95.60;;;;;;;9.58;81.92;102018.00;4918705;28;20051;-82
2022/11/26 06:28:07;;;;;;;158.18;96.47;;;;;;;8.87;81.91;101894.31;4918699;28;20051;-83
2022/11/26 06:30:34;;;;;;;169.10;99.22;;;;;;;9.42;82.38;102007.50;4918151;28;20058;-83
2022/11/26 06:33:01;;;;;;;163.43;96.32;;;;;;;9.52;82.27;102056.34;4919270;28;20081;-85
2022/11/26 06:35:31;;;;;;;156.38;94.65;;;;;;;8.93;82.68;101973.38;4923495;28;20337;-82
2022/11/26 06:37:58;;;;;;;150.73;93.05;;;;;;;8.42;82.46;101881.09;4919927;28;20059;-82
2022/11/26 06:40:25;;;;;;;156.43;95.85;;;;;;;8.63;82.09;101923.97;4915973;28;20581;-84
2022/11/26 06:42:53;;;;;;;157.18;95.40;;;;;;;9.39;82.52;102055.38;4921555;28;20333;-84
2022/11/26 06:45:21;;;;;;;156.63;94.80;;;;;;;9.31;81.67;102029.34;4918202;28;20062;-83
2022/11/26 06:47:50;;;;;;;158.05;94.68;;;;;;;9.54;83.30;102072.16;4917491;29;20055;-81
2022/11/26 06:50:19;;;;;;;152.60;91.72;;;;;;;9.46;82.60;102062.00;4918344;28;20134;-83
2022/11/26 06:52:52;;;;;;;146.93;92.13;;;;;;;9.39;83.16;102053.63;4915677;28;20051;-83
2022/11/26 06:55:19;;;;;;;155.93;91.30;;;;;;;9.15;83.62;101995.00;4916718;28;20845;-85
2022/11/26 06:57:50;;;;;;;151.00;93.05;;;;;;;9.03;82.47;101950.72;4911725;28;20052;-85
2022/11/26 07:00:20;;;;;;;158.40;91.78;;;;;;;9.68;83.51;102050.09;4912275;28;20103;-83
2022/11/26 07:02:47;;;;;;;162.43;94.53;;;;;;;9.63;82.74;102037.97;4896773;29;20056;-83
2022/11/26 07:05:14;;;;;;;164.88;96.75;;;;;;;9.67;82.15;102045.75;4896752;29;20131;-83
2022/11/26 07:07:41;;;;;;;151.35;89.20;;;;;;;9.73;81.68;102056.81;4897408;29;20273;-85
2022/11/26 07:10:10;;;;;;;156.70;91.10;;;;;;;9.28;81.47;101981.84;4912170;29;20052;-82
2022/11/26 07:12:37;;;;;;;160.88;92.15;;;;;;;8.81;81.11;101918.50;4897086;29;20058;-82
2022/11/26 07:15:05;;;;;;;149.93;88.97;;;;;;;9.14;81.65;101980.03;4897709;29;20059;-83
2022/11/26 07:17:32;;;;;;;154.00;89.03;;;;;;;8.08;82.09;101826.66;4900701;29;20056;-84
2022/11/26 07:19:58;;;;;;;152.20;90.97;;;;;;;9.12;81.59;101986.38;4916631;28;20439;-84
2022/11/26 07:22:25;;;;;;;157.63;91.25;;;;;;;8.84;81.94;101955.41;4911994;28;20070;-85
2022/11/26 07:24:56;;;;;;;159.15;92.25;;;;;;;8.97;82.04;101974.91;4914720;28;20166;-83
2022/11/26 07:27:23;;;;;;;166.13;96.80;;;;;;;9.62;81.95;102081.34;4906898;28;20055;-84
2022/11/26 07:29:50;;;;;;;157.88;93.70;;;;;;;9.61;82.06;102079.66;4914592;28;20064;-82
2022/11/26 07:32:17;;;;;;;159.18;95.03;;;;;;;9.13;81.72;102004.84;4925917;28;20058;-83
2022/11/26 07:34:44;;;;;;;155.90;91.65;;;;;;;8.53;81.85;101893.69;4937686;28;20082;-82
2022/11/26 07:37:15;;;;;;;151.15;91.05;;;;;;;8.61;81.62;101928.50;4937489;28;20061;-82
2022/11/26 07:39:42;;;;;;;154.48;90.90;;;;;;;9.55;81.79;102080.03;4937866;28;20067;-82
2022/11/26 07:42:09;;;;;;;151.25;91.10;;;;;;;9.61;82.29;102100.88;4937162;28;20141;-83
2022/11/26 07:44:36;;;;;;;150.73;93.25;;;;;;;9.01;82.05;102026.75;4937692;28;20648;-82
2022/11/26 07:47:06;;;;;;;152.25;92.10;;;;;;;9.40;82.64;102095.06;4936904;28;20078;-85
2022/11/26 07:49:37;;;;;;;151.65;90.10;;;;;;;9.57;82.15;102111.75;4936351;28;20062;-82
2022/11/26 07:52:05;;;;;;;159.55;94.13;;;;;;;9.49;82.22;102130.78;4924880;28;20059;-83
2022/11/26 07:54:32;;;;;;;158.43;91.40;;;;;;;9.63;81.49;102129.94;4916750;29;20047;-80
2022/11/26 07:57:00;;;;;;;148.43;90.80;;;;;;;9.56;81.39;102140.06;4918638;28;20226;-80
2022/11/26 07:59:30;;;;;;;156.60;91.25;;;;;;;8.30;81.50;101925.00;4931138;28;20430;-80
2022/11/26 08:01:57;;;;;;;147.07;90.65;;;;;;;8.85;82.02;102028.59;4935859;28;20383;-82
2022/11/26 08:04:24;;;;;;;152.20;89.75;;;;;;;9.35;81.46;102093.66;4936789;28;20051;-80
2022/11/26 08:06:51;;;;;;;148.88;86.82;;;;;;;9.24;82.49;102096.91;4937415;28;20484;-80
2022/11/26 08:09:18;;;;;;;157.48;92.50;;;;;;;8.44;81.75;101957.75;4937029;28;20053;-80
2022/11/26 08:11:45;;;;;;;140.48;85.90;;;;;;;9.54;81.67;102146.38;4938104;28;20058;-79
2022/11/26 08:14:17;;;;;;;142.93;86.30;;;;;;;9.56;80.98;102129.47;4936153;28;20051;-80
2022/11/26 08:16:48;;;;;;;140.75;84.15;;;;;;;9.40;80.88;102092.41;4936256;28;20522;-80
2022/11/26 08:19:15;;;;;;;147.02;84.20;;;;;;;9.13;81.04;102047.22;4930982;28;20047;-80
2022/11/26 08:21:53;;;;;;;143.50;86.82;;;;;;;9.39;81.28;102088.06;4917461;28;20384;-81
2022/11/26 08:24:22;;;;;;;155.15;86.80;;;;;;;9.07;81.73;102030.84;4918288;29;20308;-81
2022/11/26 08:26:58;;;;;;;145.23;86.90;;;;;;;9.29;80.98;102048.94;4920132;28;20059;-80
2022/11/26 08:29:25;;;;;;;147.25;86.25;;;;;;;9.59;81.11;102128.44;4916685;28;20083;-80
2022/11/26 08:31:54;;;;;;;143.65;87.13;;;;;;;9.74;80.98;102131.94;4917619;28;20070;-82
2022/11/26 08:34:21;;;;;;;138.02;85.95;;;;;;;9.56;81.62;102124.16;4920033;28;20146;-80
2022/11/26 08:36:56;;;;;;;133.00;84.72;;;;;;;9.77;81.16;102134.41;4918721;28;20078;-80
2022/11/26 08:39:23;;;;;;;151.38;86.68;;;;;;;9.38;80.57;102070.44;4916194;28;20613;-79
2022/11/26 08:41:51;;;;;;;138.32;83.60;;;;;;;9.89;79.48;102146.06;4919787;28;20047;-80
2022/11/26 08:44:19;;;;;;;139.35;86.03;;;;;;;9.59;79.70;102125.78;4920803;28;20262;-81
2022/11/26 08:46:46;;;;;;;148.43;85.78;;;;;;;9.67;80.08;102147.38;4920476;28;20162;-79
2022/11/26 08:49:13;;;;;;;139.48;87.28;;;;;;;9.20;80.22;102047.72;4918797;28;20593;-81
2022/11/26 08:51:41;;;;;;;141.98;88.95;;;;;;;9.89;79.69;102149.56;4904860;29;20055;-80
2022/11/26 08:54:12;;;;;;;139.77;87.90;;;;;;;9.35;80.25;102083.88;4921675;28;20113;-81
2022/11/26 08:56:44;;;;;;;146.73;88.43;;;;;;;9.50;79.77;102105.13;4929168;28;20062;-80
2022/11/26 08:59:13;;;;;;;147.13;91.15;;;;;;;9.56;79.98;102108.25;4919863;28;20427;-81
2022/11/26 09:01:40;;;;;;;156.20;94.20;;;;;;;9.78;79.83;102165.25;4911260;28;20432;-80
2022/11/26 09:04:10;;;;;;;152.90;89.13;;;;;;;9.79;80.09;102188.22;4918860;28;20083;-80
2022/11/26 09:06:40;;;;;;;150.32;91.72;;;;;;;9.74;80.66;102207.03;4910863;29;20051;-81
2022/11/26 09:09:13;;;;;;;148.00;89.50;;;;;;;9.74;80.45;102192.94;4901253;29;20496;-80
2022/11/26 09:11:58;;;;;;;146.68;87.90;;;;;;;9.50;80.50;102158.13;4898323;29;20630;-81
2022/11/26 09:14:29;;;;;;;149.33;88.23;;;;;;;9.76;80.42;102226.38;4897484;29;20139;-80
2022/11/26 09:16:58;;;;;;;145.52;88.53;;;;;;;9.69;80.74;102195.88;4898910;29;20044;-80
2022/11/26 09:19:26;;;;;;;145.75;87.60;;;;;;;9.94;79.23;102237.66;4900724;29;20052;-80
2022/11/26 09:21:53;;;;;;;147.80;90.13;;;;;;;9.28;80.14;102124.09;4904320;28;20516;-80
2022/11/26 09:24:21;;;;;;;149.57;92.50;;;;;;;9.81;79.71;102220.81;4900216;28;20138;-80
2022/11/26 09:26:48;;;;;;;156.00;90.40;;;;;;;9.81;80.67;102220.81;4905107;28;20048;-80
2022/11/26 09:29:18;;;;;;;148.80;94.13;;;;;;;9.93;80.03;102227.19;4904273;28;20047;-82
2022/11/26 09:31:46;;;;;;;155.45;93.95;;;;;;;9.84;80.30;102225.91;4905216;28;20676;-82
2022/11/26 09:34:36;;;;;;;150.07;93.65;;;;;;;9.86;79.34;102202.81;4934577;28;20554;-80
2022/11/26 09:37:04;;;;;;;148.93;91.95;;;;;;;9.84;79.28;102192.28;4930802;28;20274;-79
2022/11/26 09:39:38;;;;;;;158.65;90.72;;;;;;;9.66;79.21;102176.63;4901898;29;20248;-79
2022/11/26 09:42:27;;;;;;;143.50;88.72;;;;;;;9.58;78.57;102164.66;4912394;28;20062;-81
2022/11/26 09:45:11;;;;;;;144.95;87.57;;;;;;;10.01;78.65;102230.22;4915606;29;20864;-81
2022/11/26 09:47:44;;;;;;;147.60;87.22;;;;;;;10.03;78.37;102228.31;4909608;28;20058;-81
2022/11/26 09:50:30;;;;;;;146.43;86.82;;;;;;;9.92;78.97;102226.28;4908025;28;20055;-80
2022/11/26 09:53:26;;;;;;;145.00;87.60;;;;;;;9.38;78.48;102143.81;4900415;29;20059;-80
2022/11/26 09:55:55;;;;;;;152.15;89.63;;;;;;;9.77;78.70;102216.63;4910393;28;20058;-81
2022/11/26 09:58:48;;;;;;;158.23;93.57;;;;;;;9.90;79.36;102228.19;4911649;28;20161;-82
2022/11/26 10:01:21;;;;;;;158.45;92.50;;;;;;;9.73;79.65;102221.22;4908070;28;20051;-79
2022/11/26 10:03:49;;;;;;;154.23;92.65;;;;;;;9.62;79.57;102191.88;4918067;28;20087;-81
2022/11/26 10:06:50;;;;;;;153.48;88.60;;;;;;;10.00;78.39;102236.44;4920587;29;20833;-80
2022/11/26 10:09:28;;;;;;;154.70;93.18;;;;;;;9.58;79.23;102196.50;4909985;28;20052;-81
2022/11/26 10:12:09;;;;;;;147.65;90.13;;;;;;;9.90;79.20;102249.41;4920528;28;20887;-79
2022/11/26 10:15:19;;;;;;;159.55;90.40;;;;;;;9.96;78.95;102259.66;4915850;28;20056;-80
2022/11/26 10:17:52;;;;;;;163.55;91.35;;;;;;;10.04;79.40;102265.34;4903697;28;20426;-80
2022/11/26 10:20:41;;;;;;;162.05;94.35;;;;;;;9.59;79.03;102198.22;4918815;28;20738;-81
2022/11/26 10:23:11;;;;;;;160.70;94.05;;;;;;;10.04;79.22;102273.31;4909860;28;20052;-82
2022/11/26 10:25:57;;;;;;;168.75;96.57;;;;;;;9.19;78.89;102110.44;4903231;29;20052;-81
2022/11/26 10:28:34;;;;;;;168.82;95.97;;;;;;;10.31;78.55;102269.13;4916645;29;20058;-80
2022/11/26 10:31:11;;;;;;;174.95;94.97;;;;;;;10.11;77.88;102235.81;4915800;28;20059;-80
2022/11/26 10:34:00;;;;;;;160.48;93.65;;;;;;;10.14;77.73;102240.91;4919769;28;20047;-81
2022/11/26 10:36:40;;;;;;;155.25;91.75;;;;;;;10.34;78.13;102285.72;4917619;28;20047;-82
2022/11/26 10:39:13;;;;;;;173.93;92.38;;;;;;;9.85;79.35;102214.34;4911803;28;20090;-82
2022/11/26 10:41:40;;;;;;;164.40;94.18;;;;;;;9.83;79.29;102216.25;4909563;28;20047;-84
2022/11/26 10:44:40;;;;;;;164.32;96.78;;;;;;;10.53;78.02;102295.19;4915476;28;20051;-82
2022/11/26 10:47:27;;;;;;;;;;;;;;;10.60;77.24;102301.84;4921389;28;20051;-82
2022/11/26 10:50:13;;;;;;;178.82;96.78;;;;;;;10.47;76.84;102268.06;4917151;28;19927;-80
2022/11/26 10:53:05;;;;;;;169.98;93.72;;;;;;;10.38;77.22;102254.53;4906343;28;20356;-80
2022/11/26 10:55:40;;;;;;;163.75;97.47;;;;;;;10.54;77.63;102251.78;4898640;29;20051;-80
2022/11/26 10:58:29;;;;;;;177.75;98.45;;;;;;;10.80;77.02;102264.28;4909781;28;20053;-80
2022/11/26 11:01:02;;;;;;;169.32;93.72;;;;;;;10.67;77.18;102252.69;4900592;28;20665;-79
2022/11/26 11:03:46;;;;;;;158.05;93.85;;;;;;;10.72;77.06;102237.31;4902919;28;20062;-78
2022/11/26 11:06:41;;;;;;;162.88;90.18;;;;;;;10.76;76.00;102236.19;4896231;29;20048;-80
2022/11/26 11:09:36;;;;;;;159.20;87.47;;;;;;;10.96;76.07;102273.91;4896234;29;20659;-81
2022/11/26 11:12:09;;;;;;;154.05;87.10;;;;;;;10.83;75.98;102272.03;4896203;28;20346;-81
2022/11/26 11:14:39;;;;;;;155.93;91.47;;;;;;;10.74;76.17;102267.31;4897321;29;20606;-80
2022/11/26 11:17:35;;;;;;;152.30;87.00;;;;;;;10.69;75.39;102253.47;4903360;28;20055;-79
2022/11/26 11:20:11;;;;;;;155.02;82.80;;;;;;;10.73;75.89;102254.97;4897659;28;20055;-80
2022/11/26 11:22:38;;;;;;;155.43;84.90;;;;;;;10.78;75.82;102252.88;4913166;28;20039;-80
2022/11/26 11:25:19;;;;;;;145.63;88.15;;;;;;;10.77;75.62;102240.53;4918084;28;20542;-81